createdAt,value
2018-08-14T00:02:13.829Z,23.00
2018-08-14T00:04:42.356Z,23.00
2018-08-14T00:07:10.832Z,22.90
2018-08-14T00:09:39.269Z,22.90
2018-08-14T00:12:09.822Z,22.90
2018-08-14T00:14:39.378Z,22.90
2018-08-14T00:17:07.828Z,22.60
2018-08-14T00:19:36.425Z,22.70
2018-08-14T00:22:04.902Z,22.70
2018-08-14T00:24:33.883Z,22.70
2018-08-14T00:27:02.457Z,22.70
2018-08-14T00:29:30.895Z,22.80
2018-08-14T00:31:59.257Z,22.80
2018-08-14T00:34:27.682Z,22.80
2018-08-14T00:36:56.103Z,22.70
2018-08-14T00:39:24.606Z,22.60
2018-08-14T00:41:53.020Z,22.70
2018-08-14T00:44:21.624Z,22.60
2018-08-14T00:46:50.159Z,22.70
2018-08-14T00:49:18.539Z,22.50
2018-08-14T00:51:46.930Z,22.40
2018-08-14T00:54:15.427Z,22.20
2018-08-14T00:56:44.032Z,22.20
2018-08-14T00:59:12.559Z,22.20
2018-08-14T01:01:41.119Z,22.20
2018-08-14T01:04:09.682Z,22.30
2018-08-14T01:06:38.370Z,22.30
2018-08-14T01:09:08.512Z,22.20
2018-08-14T01:11:36.937Z,22.10
2018-08-14T01:14:05.366Z,22.10
2018-08-14T01:16:33.933Z,21.90
2018-08-14T01:19:02.403Z,22.10
2018-08-14T01:21:30.920Z,22.00
2018-08-14T01:23:59.340Z,22.10
2018-08-14T01:26:27.755Z,22.20
2018-08-14T01:28:56.178Z,22.10
2018-08-14T01:31:24.559Z,22.20
2018-08-14T01:33:53.115Z,22.10
2018-08-14T01:36:21.539Z,22.20
2018-08-14T01:38:49.878Z,22.10
2018-08-14T01:41:18.328Z,22.20
2018-08-14T01:43:46.734Z,22.20
2018-08-14T01:46:15.215Z,22.10
2018-08-14T01:48:43.789Z,22.00
2018-08-14T01:51:12.368Z,22.10
2018-08-14T01:53:40.812Z,22.00
2018-08-14T01:56:09.215Z,22.00
2018-08-14T01:58:37.591Z,22.00
2018-08-14T02:01:06.063Z,22.00
2018-08-14T02:03:34.600Z,22.00
2018-08-14T02:06:02.975Z,21.90
2018-08-14T02:08:31.536Z,21.90
2018-08-14T02:10:59.971Z,21.90
2018-08-14T02:13:28.533Z,21.80
2018-08-14T02:15:56.965Z,21.80
2018-08-14T02:18:25.565Z,21.90
2018-08-14T02:20:53.945Z,21.90
2018-08-14T02:23:22.430Z,21.90
2018-08-14T02:25:50.871Z,21.80
2018-08-14T02:28:19.288Z,21.70
2018-08-14T02:30:47.723Z,21.70
2018-08-14T02:33:16.125Z,21.70
2018-08-14T02:35:44.671Z,21.70
2018-08-14T02:38:13.132Z,21.80
2018-08-14T02:40:41.536Z,21.80
2018-08-14T02:43:10.097Z,21.80
2018-08-14T02:45:38.513Z,21.80
2018-08-14T02:48:08.692Z,21.80
2018-08-14T02:50:37.286Z,21.70
2018-08-14T02:53:07.155Z,21.70
2018-08-14T02:55:35.595Z,21.70
2018-08-14T02:58:04.031Z,21.50
2018-08-14T03:00:32.482Z,21.50
2018-08-14T03:03:00.916Z,21.40
2018-08-14T03:05:29.479Z,21.30
2018-08-14T03:07:57.870Z,21.50
2018-08-14T03:10:26.354Z,21.50
2018-08-14T03:12:54.759Z,21.50
2018-08-14T03:15:23.403Z,21.60
2018-08-14T03:17:53.550Z,21.60
2018-08-14T03:20:21.961Z,21.50
2018-08-14T03:22:50.593Z,21.50
2018-08-14T03:25:19.280Z,21.50
2018-08-14T03:27:48.092Z,21.40
2018-08-14T03:30:16.571Z,21.30
2018-08-14T03:32:45.085Z,21.40
2018-08-14T03:35:15.210Z,21.30
2018-08-14T03:37:43.734Z,21.20
2018-08-14T03:40:14.880Z,21.20
2018-08-14T03:42:43.650Z,21.20
2018-08-14T03:45:12.075Z,21.30
2018-08-14T03:47:40.637Z,21.20
2018-08-14T03:50:09.854Z,21.20
2018-08-14T03:52:39.439Z,21.20
2018-08-14T03:55:08.767Z,20.90
2018-08-14T03:57:37.220Z,20.90
2018-08-14T04:00:08.672Z,20.90
2018-08-14T04:02:37.098Z,20.90
2018-08-14T04:05:05.741Z,21.00
2018-08-14T04:07:37.335Z,20.80
2018-08-14T04:10:10.318Z,20.80
2018-08-14T04:12:44.740Z,20.90
2018-08-14T04:15:17.199Z,20.80
2018-08-14T04:17:49.986Z,20.80
2018-08-14T04:20:21.447Z,20.80
2018-08-14T04:22:52.073Z,20.80
2018-08-14T04:25:26.076Z,20.80
2018-08-14T04:27:58.407Z,20.90
2018-08-14T04:30:32.358Z,20.80
2018-08-14T04:33:01.113Z,20.90
2018-08-14T04:35:29.458Z,20.90
2018-08-14T04:37:57.985Z,21.00
2018-08-14T04:40:26.410Z,21.20
2018-08-14T04:42:54.823Z,21.10
2018-08-14T04:45:23.427Z,21.10
2018-08-14T04:47:51.859Z,21.20
2018-08-14T04:50:20.238Z,21.30
2018-08-14T04:52:48.872Z,21.20
2018-08-14T04:55:17.271Z,21.20
2018-08-14T04:57:45.691Z,21.30
2018-08-14T05:00:15.491Z,21.50
2018-08-14T05:02:44.978Z,21.60
2018-08-14T05:05:14.362Z,21.60
2018-08-14T05:07:42.766Z,21.80
2018-08-14T05:10:13.194Z,22.10
2018-08-14T05:12:41.715Z,22.10
2018-08-14T05:15:10.642Z,22.20
2018-08-14T05:17:39.372Z,22.20
2018-08-14T05:20:09.552Z,22.30
2018-08-14T05:22:37.937Z,22.30
2018-08-14T05:25:06.434Z,22.50
2018-08-14T05:27:36.117Z,22.60
2018-08-14T05:30:06.438Z,22.80
2018-08-14T05:32:34.954Z,22.90
2018-08-14T05:35:03.426Z,23.00
2018-08-14T05:37:31.884Z,23.00
2018-08-14T05:40:00.375Z,22.80
2018-08-14T05:42:29.151Z,22.90
2018-08-14T05:44:57.559Z,22.90
2018-08-14T05:47:25.924Z,23.00
2018-08-14T05:49:54.433Z,23.10
2018-08-14T05:52:22.834Z,23.20
2018-08-14T05:54:51.263Z,23.30
2018-08-14T05:57:19.950Z,23.40
2018-08-14T05:59:48.345Z,23.60
2018-08-14T06:07:09.436Z,23.40
2018-08-14T06:09:37.948Z,23.60
2018-08-14T06:12:06.551Z,23.70
2018-08-14T06:14:35.140Z,23.70
2018-08-14T06:17:03.660Z,23.70
2018-08-14T06:19:32.181Z,23.70
2018-08-14T06:22:00.662Z,23.80
2018-08-14T06:24:29.217Z,23.80
2018-08-14T06:26:57.748Z,24.00
2018-08-14T06:29:26.227Z,24.10
2018-08-14T06:31:54.700Z,24.20
2018-08-14T06:34:23.126Z,24.40
2018-08-14T06:36:51.658Z,24.40
2018-08-14T06:39:20.178Z,24.40
2018-08-14T06:41:48.561Z,24.50
2018-08-14T06:44:16.999Z,24.50
2018-08-14T06:46:45.422Z,24.50
2018-08-14T06:49:13.886Z,24.50
2018-08-14T06:51:42.549Z,24.50
2018-08-14T06:54:11.133Z,24.40
2018-08-14T06:56:39.579Z,24.30
2018-08-14T06:59:08.034Z,24.20
2018-08-14T07:01:36.596Z,24.30
2018-08-14T07:04:05.023Z,24.00
2018-08-14T07:06:33.422Z,24.10
2018-08-14T07:09:01.899Z,24.30
2018-08-14T07:11:30.408Z,24.40
2018-08-14T07:13:58.882Z,24.20
2018-08-14T07:16:27.417Z,24.10
2018-08-14T07:18:55.944Z,24.10
2018-08-14T07:21:24.410Z,24.20
2018-08-14T07:23:52.841Z,24.30
2018-08-14T07:26:21.234Z,24.30
2018-08-14T07:28:49.783Z,24.30
2018-08-14T07:31:18.161Z,24.20
2018-08-14T07:33:46.618Z,24.30
2018-08-14T07:36:14.995Z,24.50
2018-08-14T07:38:43.446Z,24.50
2018-08-14T07:41:11.872Z,24.70
2018-08-14T07:43:40.345Z,24.70
2018-08-14T07:46:08.762Z,24.70
2018-08-14T07:48:37.173Z,24.70
2018-08-14T07:51:05.814Z,24.80
2018-08-14T07:53:34.215Z,24.80
2018-08-14T07:56:02.646Z,24.90
2018-08-14T07:58:31.103Z,25.00
2018-08-14T08:00:59.458Z,24.90
2018-08-14T08:03:27.882Z,24.70
2018-08-14T08:05:56.403Z,24.90
2018-08-14T08:08:24.820Z,24.80
2018-08-14T08:10:53.365Z,24.70
2018-08-14T08:13:21.872Z,24.60
2018-08-14T08:15:50.274Z,24.40
2018-08-14T08:18:18.915Z,24.40
2018-08-14T08:20:47.500Z,24.60
2018-08-14T08:23:15.891Z,24.50
2018-08-14T08:25:44.316Z,24.50
2018-08-14T08:28:12.918Z,24.60
2018-08-14T08:30:41.428Z,24.70
2018-08-14T08:33:09.831Z,24.60
2018-08-14T08:35:38.211Z,24.70
2018-08-14T08:38:06.695Z,24.70
2018-08-14T08:40:35.151Z,24.60
2018-08-14T08:43:03.571Z,24.60
2018-08-14T08:45:32.099Z,24.50
2018-08-14T08:48:12.747Z,24.50
2018-08-14T08:50:41.338Z,24.40
2018-08-14T08:53:09.771Z,24.40
2018-08-14T08:55:38.304Z,24.40
2018-08-14T08:58:06.737Z,24.10
2018-08-14T09:00:35.153Z,24.20
2018-08-14T09:03:03.581Z,24.30
2018-08-14T09:05:32.038Z,24.40
2018-08-14T09:08:00.605Z,24.50
2018-08-14T09:10:28.996Z,24.60
2018-08-14T09:12:57.431Z,24.60
2018-08-14T09:15:25.975Z,24.60
2018-08-14T09:17:54.424Z,24.70
2018-08-14T09:20:23.015Z,24.80
2018-08-14T09:22:51.599Z,24.60
2018-08-14T09:25:19.995Z,24.40
2018-08-14T09:27:48.438Z,24.40
2018-08-14T09:30:17.670Z,24.30
2018-08-14T09:32:46.071Z,24.50
2018-08-14T09:35:16.039Z,24.40
2018-08-14T09:37:44.643Z,24.40
2018-08-14T09:40:15.918Z,24.40
2018-08-14T09:42:44.438Z,24.50
2018-08-14T09:45:13.769Z,24.70
2018-08-14T09:47:42.378Z,24.80
2018-08-14T09:50:15.623Z,24.80
2018-08-14T09:52:44.962Z,25.00
2018-08-14T09:55:14.310Z,25.10
2018-08-14T09:57:42.761Z,25.00
2018-08-14T10:00:24.085Z,25.00
2018-08-14T10:02:57.700Z,25.00
2018-08-14T10:05:31.625Z,25.00
2018-08-14T10:08:05.383Z,25.10
2018-08-14T10:10:33.913Z,25.20
2018-08-14T10:13:02.387Z,25.20
2018-08-14T10:15:30.785Z,25.40
2018-08-14T10:17:59.661Z,25.40
2018-08-14T10:20:28.239Z,25.50
2018-08-14T10:22:56.849Z,25.60
2018-08-14T10:25:25.282Z,25.50
2018-08-14T10:27:53.751Z,25.60
2018-08-14T10:30:22.142Z,25.50
2018-08-14T10:32:50.658Z,25.50
2018-08-14T10:35:19.058Z,25.60
2018-08-14T10:37:47.646Z,25.50
2018-08-14T10:40:16.060Z,25.50
2018-08-14T10:42:44.506Z,25.40
2018-08-14T10:45:15.426Z,25.40
2018-08-14T10:47:44.632Z,25.20
2018-08-14T10:50:17.664Z,25.10
2018-08-14T10:52:46.922Z,25.20
2018-08-14T10:55:15.744Z,25.40
2018-08-14T10:57:44.420Z,25.50
2018-08-14T11:00:27.811Z,25.70
2018-08-14T11:02:56.632Z,25.60
2018-08-14T11:05:25.088Z,25.70
2018-08-14T11:07:54.094Z,25.60
2018-08-14T11:10:24.920Z,25.60
2018-08-14T11:12:53.716Z,25.80
2018-08-14T11:15:22.331Z,25.90
2018-08-14T11:17:50.981Z,26.00
2018-08-14T11:20:23.175Z,26.00
2018-08-14T11:22:51.737Z,25.90
2018-08-14T11:25:20.419Z,25.80
2018-08-14T11:27:48.793Z,25.80
2018-08-14T11:30:21.622Z,25.70
2018-08-14T11:32:50.328Z,25.60
2018-08-14T11:35:19.436Z,25.60
2018-08-14T11:37:47.938Z,25.60
2018-08-14T11:40:16.339Z,25.50
2018-08-14T11:42:44.941Z,25.50
2018-08-14T11:45:15.434Z,25.50
2018-08-14T11:47:44.229Z,25.50
2018-08-14T11:50:14.349Z,25.50
2018-08-14T11:52:43.791Z,25.50
2018-08-14T11:55:12.263Z,25.50
2018-08-14T11:57:40.945Z,25.60
2018-08-14T12:00:12.191Z,25.60
2018-08-14T12:02:40.805Z,25.60
2018-08-14T12:05:09.730Z,25.60
2018-08-14T12:07:39.168Z,25.60
2018-08-14T12:10:08.385Z,25.60
2018-08-14T12:12:36.862Z,25.50
2018-08-14T12:15:06.077Z,25.50
2018-08-14T12:17:34.594Z,25.40
2018-08-14T12:20:03.421Z,25.50
2018-08-14T12:22:32.811Z,25.60
2018-08-14T12:25:01.248Z,25.60
2018-08-14T12:27:29.608Z,25.80
2018-08-14T12:29:58.047Z,26.10
2018-08-14T12:32:26.524Z,26.00
2018-08-14T12:34:55.182Z,25.90
2018-08-14T12:37:23.578Z,25.90
2018-08-14T12:39:55.427Z,26.00
2018-08-14T12:42:24.081Z,25.90
2018-08-14T12:44:55.122Z,26.00
2018-08-14T12:47:24.671Z,26.10
2018-08-14T12:49:53.165Z,26.00
2018-08-14T12:52:21.644Z,25.90
2018-08-14T12:54:50.027Z,25.90
2018-08-14T12:57:18.718Z,25.80
2018-08-14T12:59:47.101Z,25.80
2018-08-14T13:02:15.674Z,25.90
2018-08-14T13:04:44.143Z,25.80
2018-08-14T13:07:12.843Z,25.90
2018-08-14T13:09:41.261Z,25.80
2018-08-14T13:12:09.656Z,25.80
2018-08-14T13:14:38.136Z,25.80
2018-08-14T13:17:06.694Z,25.80
2018-08-14T13:19:35.175Z,25.80
2018-08-14T13:22:03.642Z,25.80
2018-08-14T13:24:32.035Z,25.90
2018-08-14T13:27:00.445Z,25.90
2018-08-14T13:29:28.818Z,25.90
2018-08-14T13:31:57.195Z,25.90
2018-08-14T13:34:25.730Z,25.80
2018-08-14T13:37:00.898Z,25.70
2018-08-14T13:39:29.339Z,25.90
2018-08-14T13:41:57.934Z,25.80
2018-08-14T13:44:26.412Z,25.80
2018-08-14T13:46:54.999Z,25.80
2018-08-14T13:49:23.398Z,25.90
2018-08-14T13:51:51.794Z,25.80
2018-08-14T13:54:20.364Z,25.80
2018-08-14T13:56:48.769Z,25.90
2018-08-14T13:59:17.445Z,25.80
2018-08-14T14:01:45.919Z,25.90
2018-08-14T14:04:14.372Z,25.80
2018-08-14T14:06:42.769Z,25.90
2018-08-14T14:09:11.169Z,25.80
2018-08-14T14:11:39.562Z,25.70
2018-08-14T14:14:07.946Z,25.80
2018-08-14T14:16:36.412Z,25.80
2018-08-14T14:19:05.056Z,25.80
2018-08-14T14:21:33.498Z,25.80
2018-08-14T14:24:02.069Z,25.80
2018-08-14T14:26:30.643Z,25.70
2018-08-14T14:28:59.209Z,25.60
2018-08-14T14:31:27.640Z,25.70
2018-08-14T14:33:56.176Z,25.70
2018-08-14T14:36:24.563Z,25.80
2018-08-14T14:38:53.036Z,25.90
2018-08-14T14:41:21.480Z,25.80
2018-08-14T14:43:49.922Z,25.80
2018-08-14T14:46:18.309Z,25.80
2018-08-14T14:48:46.836Z,25.80
2018-08-14T14:51:15.267Z,25.80
2018-08-14T14:53:43.650Z,25.80
2018-08-14T14:56:12.486Z,25.80
2018-08-14T14:58:40.922Z,25.80
2018-08-14T15:01:09.340Z,25.90
2018-08-14T15:03:37.774Z,26.00
2018-08-14T15:06:06.562Z,26.00
2018-08-14T15:08:35.099Z,25.90
2018-08-14T15:11:03.542Z,26.00
2018-08-14T15:13:31.949Z,25.90
2018-08-14T15:16:00.350Z,25.90
2018-08-14T15:18:28.923Z,25.90
2018-08-14T15:20:57.344Z,25.90
2018-08-14T15:23:25.725Z,25.90
2018-08-14T15:25:54.182Z,26.00
2018-08-14T15:29:26.134Z,26.00
2018-08-14T15:32:00.943Z,25.90
2018-08-14T15:34:30.777Z,25.80
2018-08-14T15:37:01.933Z,25.80
2018-08-14T15:39:30.711Z,25.90
2018-08-14T15:42:00.471Z,25.90
2018-08-14T15:44:28.998Z,25.90
2018-08-14T15:46:57.512Z,25.90
2018-08-14T15:49:26.069Z,26.00
2018-08-14T15:51:54.405Z,25.90
2018-08-14T15:54:22.774Z,25.90
2018-08-14T15:56:51.512Z,25.90
2018-08-14T15:59:19.961Z,25.80
2018-08-14T16:01:48.707Z,25.80
2018-08-14T16:04:18.254Z,25.80
2018-08-14T16:06:46.734Z,25.80
2018-08-14T16:09:18.079Z,25.80
2018-08-14T16:11:47.015Z,25.70
2018-08-14T16:14:15.511Z,25.50
2018-08-14T16:16:44.074Z,25.30
2018-08-14T16:19:13.978Z,25.30
2018-08-14T16:21:42.611Z,25.30
2018-08-14T16:24:12.364Z,25.20
2018-08-14T16:26:41.839Z,25.20
2018-08-14T16:29:10.735Z,25.10
2018-08-14T16:31:39.373Z,25.00
2018-08-14T16:34:08.070Z,25.00
2018-08-14T16:36:36.476Z,25.10
2018-08-14T16:39:07.710Z,25.20
2018-08-14T16:41:37.008Z,25.20
2018-08-14T16:44:05.980Z,25.20
2018-08-14T16:46:34.676Z,25.20
2018-08-14T16:49:03.182Z,25.20
2018-08-14T16:51:31.585Z,25.00
2018-08-14T16:54:00.028Z,25.00
2018-08-14T16:56:28.491Z,24.80
2018-08-14T16:58:58.029Z,24.80
2018-08-14T17:01:26.460Z,24.80
2018-08-14T17:03:54.841Z,24.80
2018-08-14T17:06:23.281Z,24.70
2018-08-14T17:08:51.658Z,24.60
2018-08-14T17:11:20.047Z,24.60
2018-08-14T17:13:48.478Z,24.60
2018-08-14T17:16:17.023Z,24.50
2018-08-14T17:18:49.081Z,24.40
2018-08-14T17:23:51.451Z,24.30
2018-08-14T17:26:19.912Z,24.20
2018-08-14T17:28:48.686Z,24.00
2018-08-14T17:31:17.577Z,24.00
2018-08-14T17:33:46.600Z,23.90
2018-08-14T17:36:15.286Z,23.80
2018-08-14T17:38:43.903Z,23.70
2018-08-14T17:41:13.344Z,23.60
2018-08-14T17:43:41.959Z,23.50
2018-08-14T17:46:10.510Z,23.40
2018-08-14T17:48:39.193Z,23.40
2018-08-14T17:51:08.021Z,23.30
2018-08-14T17:53:37.545Z,23.20
2018-08-14T17:56:06.086Z,23.40
2018-08-14T17:58:34.733Z,23.40
2018-08-14T18:01:03.207Z,23.40
2018-08-14T18:03:31.905Z,23.40
2018-08-14T18:06:00.937Z,23.40
2018-08-14T18:08:29.629Z,23.50
2018-08-14T18:10:58.271Z,23.50
2018-08-14T18:13:27.004Z,23.70
2018-08-14T18:15:55.486Z,23.70
2018-08-14T18:18:24.152Z,23.60
2018-08-14T18:20:52.766Z,23.50
2018-08-14T18:23:21.473Z,23.50
2018-08-14T18:25:50.209Z,23.50
2018-08-14T18:28:18.719Z,23.40
2018-08-14T18:30:47.279Z,23.40
2018-08-14T18:33:17.036Z,23.30
2018-08-14T18:35:45.807Z,23.40
2018-08-14T18:38:14.375Z,23.40
2018-08-14T18:40:43.056Z,23.40
2018-08-14T18:43:11.510Z,23.40
2018-08-14T18:45:40.353Z,23.30
2018-08-14T18:48:09.136Z,23.30
2018-08-14T18:50:37.959Z,23.20
2018-08-14T18:53:07.404Z,23.20
2018-08-14T18:55:36.189Z,23.20
2018-08-14T18:58:04.780Z,23.10
2018-08-14T19:00:33.176Z,23.20
2018-08-14T19:03:02.278Z,23.10
2018-08-14T19:05:30.735Z,23.10
2018-08-14T19:07:59.366Z,23.10
2018-08-14T19:10:27.919Z,23.10
2018-08-14T19:12:56.499Z,23.10
2018-08-14T19:15:29.118Z,23.10
2018-08-14T19:17:57.723Z,23.00
2018-08-14T19:20:26.163Z,22.80
2018-08-14T19:22:55.414Z,22.80
2018-08-14T19:25:23.891Z,22.80
2018-08-14T19:27:52.532Z,22.80
2018-08-14T19:30:21.182Z,22.80
2018-08-14T19:32:49.690Z,22.80
2018-08-14T19:35:18.394Z,22.70
2018-08-14T19:37:46.941Z,22.70
2018-08-14T19:40:18.120Z,22.70
2018-08-14T19:42:47.175Z,22.70
2018-08-14T19:45:15.686Z,22.60
2018-08-14T19:47:44.171Z,22.60
2018-08-14T19:50:15.230Z,22.60
2018-08-14T19:52:43.742Z,22.70
2018-08-14T19:55:14.870Z,22.60
2018-08-14T19:57:44.776Z,22.70
2018-08-14T20:00:15.118Z,22.70
2018-08-14T20:02:43.652Z,22.70
2018-08-14T20:05:13.835Z,22.70
2018-08-14T20:07:42.644Z,22.70
2018-08-14T20:10:12.050Z,22.60
2018-08-14T20:12:40.546Z,22.60
2018-08-14T20:15:11.107Z,22.50
2018-08-14T20:17:39.589Z,22.40
2018-08-14T20:20:11.119Z,22.30
2018-08-14T20:22:39.518Z,22.10
2018-08-14T20:25:07.928Z,21.80
2018-08-14T20:27:36.498Z,21.60
2018-08-14T20:30:08.096Z,21.70
2018-08-14T20:32:36.767Z,21.60
2018-08-14T20:35:06.524Z,21.70
2018-08-14T20:37:35.066Z,21.60
2018-08-14T20:40:03.914Z,21.50
2018-08-14T20:42:32.552Z,21.50
2018-08-14T20:45:01.051Z,21.40
2018-08-14T20:47:30.533Z,21.40
2018-08-14T20:49:58.965Z,21.40
2018-08-14T20:52:27.424Z,21.30
2018-08-14T20:54:56.180Z,21.40
2018-08-14T20:57:24.579Z,21.30
2018-08-14T20:59:53.138Z,21.40
2018-08-14T21:02:21.648Z,21.30
2018-08-14T21:04:50.075Z,21.30
2018-08-14T21:07:18.590Z,21.30
2018-08-14T21:09:46.974Z,21.40
2018-08-14T21:12:18.417Z,21.30
2018-08-14T21:14:46.852Z,21.40
2018-08-14T21:17:15.272Z,21.40
2018-08-14T21:19:43.704Z,21.20
2018-08-14T21:22:12.073Z,21.20
2018-08-14T21:24:40.549Z,21.20
2018-08-14T21:27:09.111Z,21.20
2018-08-14T21:29:37.684Z,21.20
2018-08-14T21:32:06.273Z,21.30
2018-08-14T21:34:34.722Z,21.30
2018-08-14T21:37:03.110Z,21.30
2018-08-14T21:39:31.611Z,21.20
2018-08-14T21:42:00.017Z,21.20
2018-08-14T21:44:28.417Z,21.10
2018-08-14T21:46:56.867Z,21.20
2018-08-14T21:49:25.343Z,21.10
2018-08-14T21:51:53.843Z,21.20
2018-08-14T21:54:22.409Z,21.20
2018-08-14T21:56:50.891Z,21.20
2018-08-14T21:59:19.361Z,21.20
2018-08-14T22:01:47.950Z,21.30
2018-08-14T22:04:16.471Z,21.20
2018-08-14T22:06:44.963Z,21.20
2018-08-14T22:09:13.429Z,21.00
2018-08-14T22:11:41.888Z,21.20
2018-08-14T22:14:10.485Z,21.20
2018-08-14T22:16:38.964Z,21.20
2018-08-14T22:19:07.374Z,21.10
2018-08-14T22:21:35.911Z,21.20
2018-08-14T22:24:04.340Z,21.30
2018-08-14T22:26:32.770Z,21.30
2018-08-14T22:29:02.227Z,21.20
2018-08-14T22:31:30.694Z,21.20
2018-08-14T22:33:59.367Z,21.20
2018-08-14T22:36:27.916Z,21.30
2018-08-14T22:38:56.301Z,21.20
2018-08-14T22:41:24.788Z,21.10
2018-08-14T22:43:53.205Z,21.20
2018-08-14T22:46:21.854Z,21.30
2018-08-14T22:48:50.431Z,21.30
2018-08-14T22:51:18.947Z,21.20
2018-08-14T22:53:47.380Z,21.20
2018-08-14T22:56:15.780Z,21.20
2018-08-14T22:58:44.262Z,21.30
2018-08-14T23:01:13.043Z,21.30
2018-08-14T23:03:41.442Z,21.30
2018-08-14T23:06:09.879Z,21.40
2018-08-14T23:08:39.103Z,21.30
2018-08-14T23:11:07.825Z,21.30
2018-08-14T23:13:36.548Z,21.40
2018-08-14T23:16:05.898Z,21.30
2018-08-14T23:18:36.212Z,21.30
2018-08-14T23:21:05.211Z,21.40
2018-08-14T23:23:33.573Z,21.40
2018-08-14T23:26:02.089Z,21.40
2018-08-14T23:28:30.561Z,21.40
2018-08-14T23:30:59.129Z,21.30
2018-08-14T23:33:27.559Z,21.30
2018-08-14T23:35:56.115Z,21.30
2018-08-14T23:38:24.672Z,21.20
2018-08-14T23:40:53.087Z,21.20
2018-08-14T23:43:21.556Z,21.20
2018-08-14T23:45:49.941Z,21.20
2018-08-14T23:48:18.331Z,21.10
2018-08-14T23:50:46.777Z,21.10
2018-08-14T23:53:15.296Z,21.10
2018-08-14T23:55:43.720Z,21.10
2018-08-14T23:58:12.135Z,21.00
